Long Beach /Daugherty Field/ Airport
KLGB : now visible

Airfield :











YOU CAN JOIN US ON...

 
LOGIN :

Register | Disclaimer

   EN    FR    IT 

 









Legend :    VFR   Marginal VFR   IFR   Intensive IFR   Very Intensive IFR
Visi :
Ceiling :
>= 8 km
>= 3000ft
5 to 8 km
1000 to 3000 ft
1500m to 5 km
500 to 1000 ft
800 to 1500m
200 to 500 ft
< 800m
< 200 ft
Symbols :   Thunderstorms  Fog  Heavy snow  Heavy precipitations  Wind > 20 kt






- Airport Elevation : 60 ft
- IATA code : LGB


KLGB - Long Beach /Daugherty Field/

CURRENT METAR :
  • 261753Z 09006KT 5SM HZ BKN035 OVC043 19/M13 A3005 RMK AO2 SLP176 T01891133 10194 20128 50017

EXPIRED METARs :
  • 261653Z 08012G19KT 5SM HZ BKN038 17/M14 A3006 RMK AO2 SLP178 T01671139
  • 261553Z 10010G20KT 5SM HZ OVC050 16/M14 A3004 RMK AO2 SLP172 T01611139

TAF KLGB
Valid from the 26 at 18:00 until the 27 at 18:00 UTC


261743Z 2618/2718 08012G19KT 5SM HZ BKN040 WS020/04035KT
FM262000 07008KT P6SM SKC
FM262200 33008KT P6SM SKC
FM270300 VRB03KT P6SM SKC
FM271200 00000KT P6SM SKC
KZLA FIR / North America



MET'MAP, your aeronautical weather chart ! - Copyright ORBIFLY December 2007 - Disclaimer

ORBIFLY MET'MAP TEAM :

Programming & Development : Alexandra Zaïnal
Concept & original design : Baudouin d'Aumeries
Assistance for programming : Marc-Olivier Méhu
Technical & hardware support : Manuel Goepfert

Contact : metmap@orbifly.com




SOURCES & CREDITS :

   NOAA       Earth
Advisory